createdAt,value
2022-12-03T00:01:13.378Z,68.80
2022-12-03T00:03:43.834Z,68.90
2022-12-03T00:06:14.288Z,69.20
2022-12-03T00:08:44.557Z,67.50
2022-12-03T00:11:14.821Z,67.70
2022-12-03T00:13:45.182Z,68.00
2022-12-03T00:16:16.826Z,67.30
2022-12-03T00:18:47.783Z,68.00
2022-12-03T00:21:19.577Z,68.00
2022-12-03T00:23:51.219Z,69.00
2022-12-03T00:26:23.815Z,68.30
2022-12-03T00:28:54.632Z,67.70
2022-12-03T00:31:26.715Z,67.00
2022-12-03T00:33:58.225Z,66.10
2022-12-03T00:36:30.484Z,66.70
2022-12-03T00:39:00.844Z,66.80
2022-12-03T00:41:31.049Z,65.70
2022-12-03T00:44:01.267Z,66.30
2022-12-03T00:46:31.718Z,67.30
2022-12-03T00:49:01.974Z,67.60
2022-12-03T00:51:32.273Z,67.40
2022-12-03T00:54:02.559Z,66.80
2022-12-03T00:56:33.122Z,65.40
2022-12-03T00:59:03.321Z,65.20
2022-12-03T01:01:33.734Z,64.90
2022-12-03T01:04:04.208Z,64.10
2022-12-03T01:06:34.494Z,63.70
2022-12-03T01:09:04.750Z,64.90
2022-12-03T01:11:40.837Z,65.80
2022-12-03T01:14:23.255Z,65.10
2022-12-03T01:16:55.349Z,65.70
2022-12-03T01:19:26.515Z,66.40
2022-12-03T01:21:57.817Z,64.40
2022-12-03T01:24:29.246Z,66.00
2022-12-03T01:27:00.008Z,65.00
2022-12-03T01:29:32.117Z,65.20
2022-12-03T01:32:21.476Z,64.50
2022-12-03T01:34:55.746Z,64.20
2022-12-03T01:37:28.283Z,62.90
2022-12-03T01:39:59.407Z,63.60
2022-12-03T01:42:39.647Z,62.90
2022-12-03T01:45:21.574Z,63.00
2022-12-03T01:47:54.369Z,62.30
2022-12-03T01:50:35.342Z,64.40
2022-12-03T01:53:06.784Z,64.00
2022-12-03T01:55:37.102Z,63.90
2022-12-03T01:58:07.516Z,63.90
2022-12-03T02:00:37.902Z,63.20
2022-12-03T02:03:17.465Z,63.40
2022-12-03T02:05:47.792Z,63.40
2022-12-03T02:08:40.475Z,64.00
2022-12-03T02:11:21.456Z,62.80
2022-12-03T02:13:56.185Z,63.20
2022-12-03T02:16:27.025Z,61.40
2022-12-03T02:18:58.251Z,60.90
2022-12-03T02:21:34.357Z,63.30
2022-12-03T02:24:31.474Z,62.90
2022-12-03T02:27:01.749Z,63.40
2022-12-03T02:29:32.594Z,63.40
2022-12-03T02:32:03.575Z,64.10
2022-12-03T02:34:47.219Z,63.10
2022-12-03T02:37:28.184Z,62.50
2022-12-03T02:40:02.376Z,62.20
2022-12-03T02:42:41.852Z,62.20
2022-12-03T02:45:14.977Z,62.10
2022-12-03T02:47:53.144Z,60.30
2022-12-03T02:50:29.203Z,62.10
2022-12-03T02:53:04.813Z,61.00
2022-12-03T02:55:38.393Z,60.90
2022-12-03T02:58:09.151Z,59.40
2022-12-03T03:00:41.563Z,62.20
2022-12-03T03:03:12.334Z,60.00
2022-12-03T03:05:43.490Z,61.40
2022-12-03T03:08:14.851Z,62.60
2022-12-03T03:10:45.750Z,60.90
2022-12-03T03:13:19.300Z,61.80
2022-12-03T03:15:51.079Z,60.00
2022-12-03T03:18:24.083Z,61.10
2022-12-03T03:20:56.074Z,62.90
2022-12-03T03:23:27.472Z,63.80
2022-12-03T03:26:06.567Z,64.00
2022-12-03T03:28:50.238Z,65.70
2022-12-03T03:31:25.690Z,65.60
2022-12-03T03:33:56.205Z,64.50
2022-12-03T03:36:27.607Z,66.10
2022-12-03T03:39:00.084Z,66.00
2022-12-03T03:41:31.883Z,65.30
2022-12-03T03:44:02.813Z,65.40
2022-12-03T03:46:34.954Z,64.20
2022-12-03T03:49:07.142Z,65.30
2022-12-03T03:51:39.243Z,65.10
2022-12-03T03:54:10.249Z,65.80
2022-12-03T03:56:40.638Z,66.50
2022-12-03T03:59:11.118Z,66.30
2022-12-03T04:01:43.335Z,66.00
2022-12-03T04:04:22.302Z,66.70
2022-12-03T04:06:53.546Z,67.60
2022-12-03T04:09:23.958Z,68.70
2022-12-03T04:12:12.694Z,67.80
2022-12-03T04:14:43.009Z,68.10
2022-12-03T04:17:13.338Z,67.40
2022-12-03T04:19:43.634Z,66.60
2022-12-03T04:22:32.150Z,65.60
2022-12-03T04:25:25.029Z,64.50
2022-12-03T04:28:15.853Z,64.70
2022-12-03T04:30:47.402Z,62.90
2022-12-03T04:33:36.216Z,64.10
2022-12-03T04:36:06.990Z,64.20
2022-12-03T04:38:38.032Z,64.40
2022-12-03T04:41:09.999Z,64.30
2022-12-03T04:43:59.908Z,63.90
2022-12-03T04:46:30.299Z,64.30
2022-12-03T04:49:00.665Z,64.50
2022-12-03T04:51:31.027Z,65.20
2022-12-03T04:54:01.389Z,64.90
2022-12-03T04:56:31.672Z,66.30
2022-12-03T04:59:02.871Z,66.20
2022-12-03T05:01:33.352Z,66.50
2022-12-03T05:04:03.826Z,66.80
2022-12-03T05:06:34.089Z,66.60
2022-12-03T05:09:04.457Z,66.60
2022-12-03T05:11:34.794Z,67.60
2022-12-03T05:14:05.536Z,67.90
2022-12-03T05:16:35.905Z,68.20
2022-12-03T05:19:09.907Z,67.90
2022-12-03T05:21:40.263Z,68.40
2022-12-03T05:24:11.365Z,68.60
2022-12-03T05:26:41.611Z,68.00
2022-12-03T05:29:11.909Z,68.50
2022-12-03T05:31:42.111Z,68.90
2022-12-03T05:34:12.822Z,68.10
2022-12-03T05:36:43.485Z,69.00
2022-12-03T05:39:13.801Z,68.40
2022-12-03T05:42:02.211Z,68.20
2022-12-03T05:44:32.470Z,67.90
2022-12-03T05:47:02.713Z,67.70
2022-12-03T05:49:33.356Z,67.20
2022-12-03T05:52:03.582Z,66.60
2022-12-03T05:54:33.931Z,67.30
2022-12-03T05:57:04.233Z,67.20
2022-12-03T05:59:34.439Z,66.60
2022-12-03T06:02:04.734Z,66.20
2022-12-03T06:04:35.128Z,66.30
2022-12-03T06:07:07.471Z,65.30
2022-12-03T06:09:41.676Z,66.10
2022-12-03T06:12:12.424Z,66.90
2022-12-03T06:14:43.359Z,66.90
2022-12-03T06:17:14.028Z,66.70
2022-12-03T06:19:44.393Z,67.10
2022-12-03T06:22:16.062Z,67.60
2022-12-03T06:24:46.274Z,67.80
2022-12-03T06:27:16.600Z,68.00
2022-12-03T06:29:46.906Z,68.70
2022-12-03T06:32:17.257Z,68.00
2022-12-03T06:34:48.791Z,67.80
2022-12-03T06:37:19.088Z,68.30
2022-12-03T06:39:58.597Z,68.40
2022-12-03T06:42:29.998Z,68.20
2022-12-03T06:45:00.316Z,67.80
2022-12-03T06:47:33.438Z,68.30
2022-12-03T06:50:03.733Z,67.70
2022-12-03T06:52:34.976Z,67.60
2022-12-03T06:55:05.208Z,67.70
2022-12-03T06:57:35.471Z,68.40
2022-12-03T07:00:07.687Z,67.90
2022-12-03T07:02:38.648Z,68.10
2022-12-03T07:05:10.520Z,68.20
2022-12-03T07:07:41.051Z,68.50
2022-12-03T07:10:16.510Z,68.50
2022-12-03T07:12:47.222Z,68.40
2022-12-03T07:15:18.123Z,69.10
2022-12-03T07:17:48.817Z,69.20
2022-12-03T07:20:29.950Z,69.40
2022-12-03T07:23:02.212Z,68.70
2022-12-03T07:25:33.298Z,68.60
2022-12-03T07:28:05.536Z,68.50
2022-12-03T07:30:36.411Z,68.40
2022-12-03T07:33:09.871Z,68.80
2022-12-03T07:35:40.289Z,68.20
2022-12-03T07:38:10.581Z,68.50
2022-12-03T07:40:41.405Z,68.80
2022-12-03T07:43:17.768Z,69.20
2022-12-03T07:45:56.562Z,69.60
2022-12-03T07:48:26.923Z,70.00
2022-12-03T07:50:58.468Z,69.60
2022-12-03T07:53:29.127Z,70.10
2022-12-03T07:55:59.819Z,70.00
2022-12-03T07:58:32.542Z,71.10
2022-12-03T08:01:03.374Z,70.10
2022-12-03T08:03:34.071Z,70.20
2022-12-03T08:06:05.590Z,70.30
2022-12-03T08:08:47.897Z,71.20
2022-12-03T08:11:18.880Z,71.50
2022-12-03T08:13:52.553Z,71.90
2022-12-03T08:16:25.087Z,72.00
2022-12-03T08:19:00.591Z,72.50
2022-12-03T08:24:25.525Z,72.90
2022-12-03T08:26:56.251Z,73.40
2022-12-03T08:29:29.234Z,73.50
2022-12-03T08:32:02.057Z,73.40
2022-12-03T08:34:44.721Z,73.70
2022-12-03T08:37:21.487Z,74.40
2022-12-03T08:39:56.961Z,74.80
2022-12-03T08:42:44.072Z,75.00
2022-12-03T08:45:41.615Z,75.30
2022-12-03T08:48:29.766Z,75.80
2022-12-03T08:51:03.561Z,76.30
2022-12-03T08:53:55.430Z,76.50
2022-12-03T08:56:32.764Z,77.10
2022-12-03T08:59:18.174Z,77.40
2022-12-03T09:01:51.089Z,77.70
2022-12-03T09:04:42.752Z,78.00
2022-12-03T09:07:13.070Z,78.40
2022-12-03T09:09:43.499Z,78.70
2022-12-03T09:12:13.738Z,78.70
2022-12-03T09:14:44.475Z,78.70
2022-12-03T09:17:14.654Z,79.20
2022-12-03T09:19:46.706Z,79.50
2022-12-03T09:22:18.982Z,79.90
2022-12-03T09:24:50.216Z,79.90
2022-12-03T09:27:20.599Z,80.10
2022-12-03T09:29:51.496Z,80.70
2022-12-03T09:32:21.732Z,80.70
2022-12-03T09:34:52.577Z,80.80
2022-12-03T09:37:24.295Z,81.00
2022-12-03T09:39:54.668Z,81.00
2022-12-03T09:42:25.182Z,81.50
2022-12-03T09:44:56.155Z,81.50
2022-12-03T09:47:27.055Z,81.80
2022-12-03T09:49:58.575Z,81.60
2022-12-03T09:52:36.013Z,82.10
2022-12-03T09:55:21.154Z,82.00
2022-12-03T09:57:51.932Z,82.10
2022-12-03T10:00:25.697Z,81.90
2022-12-03T10:03:01.049Z,82.10
2022-12-03T10:05:32.568Z,82.70
2022-12-03T10:08:14.634Z,82.50
2022-12-03T10:10:45.371Z,82.60
2022-12-03T10:13:25.651Z,83.00
2022-12-03T10:15:58.704Z,82.70
2022-12-03T10:18:35.668Z,82.60
2022-12-03T10:21:26.336Z,82.40
2022-12-03T10:24:19.630Z,82.30
2022-12-03T10:26:51.793Z,82.20
2022-12-03T10:29:29.941Z,81.70
2022-12-03T10:32:13.348Z,81.70
2022-12-03T10:34:45.126Z,81.60
2022-12-03T10:37:18.926Z,81.30
2022-12-03T10:40:00.501Z,81.60
2022-12-03T10:42:36.572Z,82.10
2022-12-03T10:45:21.852Z,82.10
2022-12-03T10:48:09.205Z,82.00
2022-12-03T10:50:41.448Z,82.30
2022-12-03T10:53:12.077Z,82.10
2022-12-03T10:55:44.208Z,81.90
2022-12-03T10:58:29.373Z,81.80
2022-12-03T11:01:01.375Z,82.60
2022-12-03T11:03:38.193Z,82.00
2022-12-03T11:06:08.857Z,82.20
2022-12-03T11:08:40.773Z,82.00
2022-12-03T11:11:23.844Z,82.30
2022-12-03T11:13:59.447Z,81.90
2022-12-03T11:16:45.349Z,82.80
2022-12-03T11:19:38.818Z,83.30
2022-12-03T11:22:12.515Z,83.40
2022-12-03T11:24:43.876Z,83.60
2022-12-03T11:27:14.024Z,83.80
2022-12-03T11:30:00.084Z,83.80
2022-12-03T11:32:45.835Z,84.80
2022-12-03T11:35:36.726Z,84.80
2022-12-03T11:38:46.137Z,85.10
2022-12-03T11:41:23.016Z,85.10
2022-12-03T11:43:58.908Z,85.20
2022-12-03T11:46:32.304Z,85.50
2022-12-03T11:49:04.016Z,86.00
2022-12-03T11:51:35.296Z,86.30
2022-12-03T11:54:05.936Z,86.80
2022-12-03T11:56:36.784Z,87.10
2022-12-03T11:59:15.283Z,87.40
2022-12-03T12:01:46.457Z,87.50
2022-12-03T12:04:37.453Z,88.20
2022-12-03T12:07:08.321Z,87.90
2022-12-03T12:09:57.071Z,88.40
2022-12-03T12:12:39.717Z,88.30
2022-12-03T12:15:42.128Z,88.60
2022-12-03T12:18:36.812Z,88.80
2022-12-03T12:21:49.822Z,89.30
2022-12-03T12:24:45.635Z,89.20
2022-12-03T12:27:22.439Z,89.70
2022-12-03T12:30:01.074Z,89.40
2022-12-03T12:32:50.055Z,89.20
2022-12-03T12:35:29.182Z,89.40
2022-12-03T12:38:10.583Z,89.10
2022-12-03T12:40:43.197Z,88.80
2022-12-03T12:43:28.904Z,89.10
2022-12-03T12:46:24.952Z,89.10
2022-12-03T12:48:59.362Z,89.10
2022-12-03T12:51:29.900Z,89.10
2022-12-03T12:54:00.524Z,89.10
2022-12-03T12:56:33.561Z,89.10
2022-12-03T12:59:24.959Z,89.20
2022-12-03T13:01:56.528Z,89.00
2022-12-03T13:04:29.245Z,89.20
2022-12-03T13:06:59.998Z,89.60
2022-12-03T13:09:30.395Z,89.40
2022-12-03T13:12:09.137Z,89.90
2022-12-03T13:14:40.202Z,90.00
2022-12-03T13:17:20.775Z,90.00
2022-12-03T13:20:00.452Z,90.10
2022-12-03T13:22:36.083Z,90.00
2022-12-03T13:26:00.274Z,90.10
2022-12-03T13:28:51.385Z,90.10
2022-12-03T13:31:28.936Z,90.10
2022-12-03T13:34:00.152Z,90.20
2022-12-03T13:36:44.693Z,90.10
2022-12-03T13:39:23.558Z,90.30
2022-12-03T13:42:12.279Z,90.40
2022-12-03T13:44:50.686Z,90.50
2022-12-03T13:47:26.166Z,90.70
2022-12-03T13:50:05.389Z,90.90
2022-12-03T13:52:37.675Z,91.00
2022-12-03T13:55:12.674Z,91.10
2022-12-03T13:57:43.505Z,91.00
2022-12-03T14:00:14.332Z,90.90
2022-12-03T14:02:45.289Z,91.00
2022-12-03T14:05:15.784Z,91.10
2022-12-03T14:07:46.153Z,91.10
2022-12-03T14:10:17.952Z,91.20
2022-12-03T14:12:49.624Z,91.20
2022-12-03T14:15:20.441Z,91.30
2022-12-03T14:17:51.749Z,91.20
2022-12-03T14:20:26.226Z,91.50
2022-12-03T14:22:59.537Z,91.30
2022-12-03T14:25:33.704Z,91.30
2022-12-03T14:28:04.103Z,91.50
2022-12-03T14:30:34.402Z,91.30
2022-12-03T14:33:05.161Z,91.30
2022-12-03T14:35:35.456Z,91.30
2022-12-03T14:38:05.917Z,91.30
2022-12-03T14:40:36.466Z,91.60
2022-12-03T14:43:07.282Z,91.40
2022-12-03T14:45:37.586Z,91.60
2022-12-03T14:48:08.290Z,91.30
2022-12-03T14:50:38.621Z,91.50
2022-12-03T14:53:10.471Z,91.60
2022-12-03T14:55:40.752Z,91.60
2022-12-03T14:58:11.533Z,91.60
2022-12-03T15:00:41.772Z,91.70
2022-12-03T15:03:14.421Z,91.80
2022-12-03T15:05:49.705Z,91.70
2022-12-03T15:08:27.239Z,91.80
2022-12-03T15:10:58.130Z,91.80
2022-12-03T15:13:28.977Z,91.80
2022-12-03T15:15:59.253Z,91.70
2022-12-03T15:18:29.605Z,91.90
2022-12-03T15:21:00.375Z,92.10
2022-12-03T15:23:30.735Z,92.20
2022-12-03T15:26:01.074Z,92.30
2022-12-03T15:28:31.611Z,92.10
2022-12-03T15:31:01.992Z,92.10
2022-12-03T15:33:32.367Z,92.10
2022-12-03T15:36:07.366Z,92.30
2022-12-03T15:38:37.820Z,92.30
2022-12-03T15:41:23.906Z,92.50
2022-12-03T15:43:55.950Z,92.80
2022-12-03T15:46:27.557Z,92.80
2022-12-03T15:49:07.169Z,92.70
2022-12-03T15:51:38.712Z,93.00
2022-12-03T15:54:09.236Z,92.80
2022-12-03T15:56:39.495Z,92.90
2022-12-03T15:59:10.492Z,92.90
2022-12-03T16:01:41.159Z,92.80
2022-12-03T16:04:11.531Z,92.90
2022-12-03T16:06:42.242Z,92.90
2022-12-03T16:09:15.314Z,93.20
2022-12-03T16:11:45.574Z,93.30
2022-12-03T16:14:17.208Z,93.40
2022-12-03T16:16:51.245Z,93.30
2022-12-03T16:19:23.508Z,93.30
2022-12-03T16:21:58.813Z,93.40
2022-12-03T16:24:31.401Z,93.20
2022-12-03T16:27:05.239Z,93.40
2022-12-03T16:29:36.134Z,93.40
2022-12-03T16:32:07.295Z,93.40
2022-12-03T16:34:41.906Z,93.90
2022-12-03T16:37:13.561Z,93.50
2022-12-03T16:39:55.471Z,93.50
2022-12-03T16:42:26.416Z,93.60
2022-12-03T16:44:57.301Z,93.60
2022-12-03T16:47:33.640Z,93.70
2022-12-03T16:50:14.155Z,93.60
2022-12-03T16:52:51.518Z,93.80
2022-12-03T16:55:21.998Z,93.50
2022-12-03T16:57:52.469Z,93.70
2022-12-03T17:00:23.627Z,93.40
2022-12-03T17:02:54.107Z,93.50
2022-12-03T17:05:24.613Z,93.20
2022-12-03T17:07:56.585Z,93.30
2022-12-03T17:10:30.441Z,93.20
2022-12-03T17:13:11.212Z,93.30
2022-12-03T17:15:42.857Z,93.40
2022-12-03T17:18:16.389Z,94.00
2022-12-03T17:20:46.673Z,93.50
2022-12-03T17:23:19.418Z,93.70
2022-12-03T17:25:49.784Z,93.90
2022-12-03T17:28:23.503Z,93.80
2022-12-03T17:30:54.341Z,93.50
2022-12-03T17:33:30.419Z,93.60
2022-12-03T17:36:03.872Z,93.60
2022-12-03T17:38:38.871Z,93.70
2022-12-03T17:41:12.490Z,93.70
2022-12-03T17:43:46.095Z,93.90
2022-12-03T17:46:18.839Z,93.80
2022-12-03T17:48:49.633Z,94.00
2022-12-03T17:51:25.770Z,93.90
2022-12-03T17:53:57.531Z,94.10
2022-12-03T17:56:28.251Z,93.50
2022-12-03T17:59:02.009Z,93.60
2022-12-03T18:01:35.206Z,93.40
2022-12-03T18:04:06.517Z,93.30
2022-12-03T18:06:40.293Z,93.60
2022-12-03T18:09:11.108Z,93.80
2022-12-03T18:11:44.675Z,93.90
2022-12-03T18:14:18.783Z,94.10
2022-12-03T18:16:51.773Z,94.10
2022-12-03T18:19:22.077Z,93.70
2022-12-03T18:21:52.475Z,94.10
2022-12-03T18:24:22.986Z,93.40
2022-12-03T18:26:55.361Z,94.00
2022-12-03T18:29:25.770Z,93.70
2022-12-03T18:31:56.107Z,93.30
2022-12-03T18:34:26.389Z,93.80
2022-12-03T18:37:00.148Z,94.00
2022-12-03T18:39:35.652Z,93.70
2022-12-03T18:42:21.200Z,94.00
2022-12-03T18:44:55.086Z,93.80
2022-12-03T18:47:31.576Z,94.10
2022-12-03T18:50:01.880Z,93.70
2022-12-03T18:52:33.912Z,93.70
2022-12-03T18:55:04.290Z,93.70
2022-12-03T18:57:34.950Z,93.30
2022-12-03T19:00:13.655Z,93.30
2022-12-03T19:05:37.410Z,93.60
2022-12-03T19:08:16.417Z,93.40
2022-12-03T19:10:47.774Z,93.70
2022-12-03T19:13:21.303Z,93.60
2022-12-03T19:15:52.529Z,93.80
2022-12-03T19:18:27.617Z,93.70
2022-12-03T19:21:01.197Z,94.30
2022-12-03T19:23:31.865Z,93.90
2022-12-03T19:26:06.024Z,94.10
2022-12-03T19:28:37.428Z,94.40
2022-12-03T19:31:19.509Z,94.50
2022-12-03T19:33:50.339Z,94.30
2022-12-03T19:36:36.049Z,94.30
2022-12-03T19:39:07.948Z,94.30
2022-12-03T19:41:38.150Z,94.40
2022-12-03T19:44:11.062Z,94.30
2022-12-03T19:46:46.990Z,94.40
2022-12-03T19:49:20.114Z,94.40
2022-12-03T19:51:50.580Z,94.50
2022-12-03T19:54:21.417Z,94.70
2022-12-03T19:56:55.340Z,94.60
2022-12-03T19:59:25.627Z,94.70
2022-12-03T20:01:55.962Z,94.70
2022-12-03T20:04:29.053Z,95.00
2022-12-03T20:06:59.426Z,94.60
2022-12-03T20:09:29.916Z,94.80
2022-12-03T20:12:00.852Z,94.90
2022-12-03T20:14:31.342Z,95.20
2022-12-03T20:17:01.917Z,95.20
2022-12-03T20:19:33.534Z,95.20
2022-12-03T20:22:08.922Z,95.30
2022-12-03T20:24:41.220Z,95.30
2022-12-03T20:27:11.854Z,95.10
2022-12-03T20:29:42.493Z,94.90
2022-12-03T20:32:13.485Z,94.70
2022-12-03T20:34:46.671Z,94.80
2022-12-03T20:37:19.425Z,94.70
2022-12-03T20:39:53.537Z,94.70
2022-12-03T20:42:26.415Z,94.60
2022-12-03T20:44:57.801Z,94.40
2022-12-03T20:47:28.533Z,94.30
2022-12-03T20:49:59.224Z,94.00
2022-12-03T20:52:29.950Z,93.70
2022-12-03T20:55:04.127Z,93.40
2022-12-03T20:57:35.024Z,92.80
2022-12-03T21:00:09.544Z,92.60
2022-12-03T21:02:42.705Z,92.40
2022-12-03T21:05:13.649Z,92.20
2022-12-03T21:07:44.613Z,92.10
2022-12-03T21:10:36.149Z,92.10
2022-12-03T21:13:06.880Z,92.20
2022-12-03T21:15:37.691Z,92.30
2022-12-03T21:18:10.866Z,92.30
2022-12-03T21:20:51.563Z,92.10
2022-12-03T21:23:22.198Z,91.70
2022-12-03T21:25:53.103Z,91.10
2022-12-03T21:28:24.754Z,90.20
2022-12-03T21:30:56.203Z,89.40
2022-12-03T21:33:26.932Z,87.50
2022-12-03T21:35:58.683Z,86.00
2022-12-03T21:38:48.918Z,86.10
2022-12-03T21:41:20.012Z,84.50
2022-12-03T21:43:50.246Z,84.30
2022-12-03T21:47:09.877Z,83.10
2022-12-03T21:49:12.224Z,81.60
2022-12-03T21:51:42.963Z,80.20
2022-12-03T21:54:13.259Z,79.70
2022-12-03T21:56:43.936Z,79.20
2022-12-03T21:59:14.186Z,78.60
2022-12-03T22:01:47.340Z,78.20
2022-12-03T22:04:21.327Z,77.90
2022-12-03T22:06:51.659Z,78.60
2022-12-03T22:09:26.308Z,77.90
2022-12-03T22:11:58.806Z,77.30
2022-12-03T22:14:29.858Z,77.50
2022-12-03T22:17:00.184Z,77.60
2022-12-03T22:19:30.664Z,76.00
2022-12-03T22:22:00.896Z,76.10
2022-12-03T22:24:31.417Z,76.20
2022-12-03T22:27:01.671Z,75.60
2022-12-03T22:29:32.005Z,75.40
2022-12-03T22:32:02.335Z,74.30
2022-12-03T22:34:32.573Z,74.80
2022-12-03T22:37:03.195Z,74.10
2022-12-03T22:39:33.446Z,73.40
2022-12-03T22:42:03.758Z,72.50
2022-12-03T22:44:33.961Z,72.90
2022-12-03T22:47:04.251Z,73.90
2022-12-03T22:49:37.592Z,73.30
2022-12-03T22:52:08.125Z,72.90
2022-12-03T22:54:38.362Z,71.50
2022-12-03T22:57:09.080Z,72.00
2022-12-03T22:59:40.257Z,72.70
2022-12-03T23:02:11.191Z,71.70
2022-12-03T23:04:41.624Z,71.50
2022-12-03T23:07:13.329Z,70.90
2022-12-03T23:09:43.878Z,70.40
2022-12-03T23:12:16.504Z,70.00
2022-12-03T23:14:46.724Z,71.20
2022-12-03T23:17:16.988Z,71.50
2022-12-03T23:19:47.227Z,68.70
2022-12-03T23:22:17.507Z,69.40
2022-12-03T23:24:48.425Z,69.90
2022-12-03T23:27:18.721Z,70.00
2022-12-03T23:29:49.041Z,67.90
2022-12-03T23:32:19.225Z,67.80
2022-12-03T23:34:49.648Z,68.40
2022-12-03T23:37:19.924Z,68.00
2022-12-03T23:39:53.610Z,68.00
2022-12-03T23:42:24.126Z,68.30
2022-12-03T23:44:55.802Z,65.70
2022-12-03T23:47:25.954Z,67.30
2022-12-03T23:49:56.309Z,67.20
2022-12-03T23:52:28.583Z,67.30
2022-12-03T23:54:58.920Z,66.50
2022-12-03T23:57:29.092Z,65.60
2022-12-03T23:59:59.315Z,64.50
